createdAt,value
2023-05-16T00:02:24.106Z,92.10
2023-05-16T00:07:28.161Z,92.16
2023-05-16T00:12:34.714Z,91.85
2023-05-16T00:17:39.600Z,91.63
2023-05-16T00:22:44.420Z,91.02
2023-05-16T00:27:48.123Z,90.88
2023-05-16T00:32:54.902Z,91.12
2023-05-16T00:38:00.390Z,90.97
2023-05-16T00:43:04.478Z,90.82
2023-05-16T00:48:10.547Z,91.30
2023-05-16T00:53:14.408Z,91.74
2023-05-16T00:58:18.933Z,91.34
2023-05-16T01:03:23.029Z,90.96
2023-05-16T01:08:27.534Z,91.55
2023-05-16T01:13:58.080Z,91.71
2023-05-16T01:19:21.728Z,92.07
2023-05-16T01:24:45.140Z,92.11
2023-05-16T01:29:48.843Z,91.76
2023-05-16T01:34:52.918Z,91.75
2023-05-16T01:40:08.175Z,91.91
2023-05-16T01:45:25.418Z,92.29
2023-05-16T01:50:30.261Z,92.30
2023-05-16T01:55:45.679Z,91.49
2023-05-16T02:00:49.531Z,91.84
2023-05-16T02:05:54.124Z,91.64
2023-05-16T02:10:57.825Z,91.20
2023-05-16T02:16:01.655Z,91.75
2023-05-16T02:21:05.390Z,91.63
2023-05-16T02:26:09.445Z,91.72
2023-05-16T02:31:14.420Z,92.14
2023-05-16T02:36:18.276Z,92.30
2023-05-16T02:41:22.654Z,92.57
2023-05-16T02:46:29.256Z,92.69
2023-05-16T02:51:33.245Z,92.52
2023-05-16T02:56:37.734Z,92.12
2023-05-16T03:01:41.661Z,92.18
2023-05-16T03:06:45.471Z,92.44
2023-05-16T03:11:49.329Z,92.47
2023-05-16T03:16:56.535Z,91.94
2023-05-16T03:22:00.293Z,92.22
2023-05-16T03:27:06.082Z,92.40
2023-05-16T03:32:11.974Z,92.22
2023-05-16T03:37:16.774Z,92.62
2023-05-16T03:42:20.554Z,93.04
2023-05-16T03:47:25.756Z,93.51
2023-05-16T03:52:29.774Z,93.23
2023-05-16T03:57:34.332Z,92.75
2023-05-16T04:02:41.287Z,92.39
2023-05-16T04:07:45.144Z,88.25
2023-05-16T04:12:49.314Z,81.31
2023-05-16T04:17:53.036Z,74.81
2023-05-16T04:22:56.825Z,71.19
2023-05-16T04:28:00.557Z,68.49
2023-05-16T04:33:04.518Z,67.73
2023-05-16T04:38:09.347Z,67.34
2023-05-16T04:43:14.086Z,64.73
2023-05-16T04:48:17.953Z,62.00
2023-05-16T04:53:21.859Z,58.96
2023-05-16T04:58:25.587Z,56.04
2023-05-16T05:03:29.487Z,55.28
2023-05-16T05:08:33.168Z,56.39
2023-05-16T05:13:36.939Z,60.50
2023-05-16T05:18:41.261Z,63.62
2023-05-16T05:23:45.060Z,68.10
2023-05-16T05:29:00.989Z,69.50
2023-05-16T05:34:09.307Z,69.60
2023-05-16T05:39:13.030Z,70.87
2023-05-16T05:44:17.225Z,72.06
2023-05-16T05:49:21.097Z,73.57
2023-05-16T05:54:25.225Z,75.15
2023-05-16T05:59:29.014Z,75.01
2023-05-16T06:04:33.313Z,75.44
2023-05-16T06:09:37.109Z,76.23
2023-05-16T06:14:41.026Z,76.98
2023-05-16T06:19:45.644Z,77.25
2023-05-16T06:24:49.250Z,76.66
2023-05-16T06:29:52.975Z,77.41
2023-05-16T06:34:56.602Z,77.01
2023-05-16T06:40:00.381Z,76.91
2023-05-16T06:45:04.809Z,75.33
2023-05-16T06:50:08.982Z,75.94
2023-05-16T06:55:16.814Z,75.32
2023-05-16T07:00:21.066Z,74.69
2023-05-16T07:05:24.843Z,74.88
2023-05-16T07:10:28.798Z,75.01
2023-05-16T07:15:32.722Z,75.40
2023-05-16T07:20:36.846Z,73.76
2023-05-16T07:25:41.663Z,74.01
2023-05-16T07:30:45.726Z,73.30
2023-05-16T07:36:00.926Z,73.59
2023-05-16T07:41:12.180Z,73.21
2023-05-16T07:46:16.108Z,72.87
2023-05-16T07:51:20.250Z,71.66
2023-05-16T07:56:24.427Z,72.28
2023-05-16T08:01:28.396Z,70.77
2023-05-16T08:06:32.369Z,70.82
2023-05-16T08:11:36.680Z,71.46
2023-05-16T08:16:40.572Z,71.11
2023-05-16T08:21:44.406Z,70.72
2023-05-16T08:26:48.148Z,69.98
2023-05-16T08:31:52.663Z,68.69
2023-05-16T08:36:56.611Z,67.47
2023-05-16T08:42:00.971Z,68.24
2023-05-16T08:47:16.482Z,66.43
2023-05-16T08:52:28.342Z,65.30
2023-05-16T08:57:34.227Z,64.94
2023-05-16T09:02:42.385Z,63.24
2023-05-16T09:07:47.228Z,64.50
2023-05-16T09:12:52.559Z,65.67
2023-05-16T09:17:56.363Z,64.74
2023-05-16T09:23:00.982Z,65.55
2023-05-16T09:28:05.073Z,62.30
2023-05-16T09:33:09.047Z,59.82
2023-05-16T09:38:17.367Z,61.73
2023-05-16T09:43:26.025Z,62.71
2023-05-16T09:48:30.027Z,61.43
2023-05-16T09:53:34.742Z,63.92
2023-05-16T09:58:41.462Z,62.47
2023-05-16T10:03:45.598Z,59.97
2023-05-16T10:08:50.498Z,60.22
2023-05-16T10:13:55.517Z,60.05
2023-05-16T10:19:01.950Z,58.96
2023-05-16T10:24:08.097Z,57.46
2023-05-16T10:29:12.381Z,57.42
2023-05-16T10:34:18.715Z,59.75
2023-05-16T10:39:22.779Z,57.88
2023-05-16T10:44:26.667Z,61.59
2023-05-16T10:49:32.132Z,63.19
2023-05-16T10:54:52.515Z,60.47
2023-05-16T11:00:02.205Z,59.89
2023-05-16T11:05:07.475Z,58.81
2023-05-16T11:10:17.652Z,57.61
2023-05-16T11:15:28.939Z,59.75
2023-05-16T11:20:35.912Z,60.01
2023-05-16T11:25:41.603Z,61.04
2023-05-16T11:30:51.383Z,61.86
2023-05-16T11:41:18.254Z,62.32
2023-05-16T11:46:22.890Z,61.72
2023-05-16T11:51:27.115Z,62.32
2023-05-16T11:56:32.571Z,62.18
2023-05-16T12:01:38.368Z,62.87
2023-05-16T12:06:48.770Z,61.48
2023-05-16T12:11:53.648Z,63.11
2023-05-16T12:16:57.689Z,63.54
2023-05-16T12:22:02.250Z,62.80
2023-05-16T12:27:07.103Z,63.49
2023-05-16T12:32:11.191Z,63.86
2023-05-16T12:37:15.139Z,64.49
2023-05-16T12:42:20.364Z,64.61
2023-05-16T12:47:24.226Z,66.07
2023-05-16T12:52:29.796Z,66.36
2023-05-16T12:57:35.500Z,66.77
2023-05-16T13:02:41.164Z,67.23
2023-05-16T13:07:45.431Z,68.25
2023-05-16T13:12:49.320Z,67.65
2023-05-16T13:17:53.396Z,68.08
2023-05-16T13:22:57.233Z,69.19
2023-05-16T13:28:02.361Z,69.75
2023-05-16T13:33:06.241Z,70.39
2023-05-16T13:38:12.426Z,72.02
2023-05-16T13:43:16.701Z,72.12
2023-05-16T13:48:21.737Z,71.97
2023-05-16T13:53:25.694Z,72.04
2023-05-16T13:58:29.577Z,72.09
2023-05-16T14:03:34.316Z,72.89
2023-05-16T14:08:38.141Z,74.28
2023-05-16T14:13:42.076Z,75.27
2023-05-16T14:18:46.121Z,74.39
2023-05-16T14:23:51.884Z,74.88
2023-05-16T14:28:57.341Z,76.19
2023-05-16T14:34:01.242Z,76.93
2023-05-16T14:39:05.115Z,77.31
2023-05-16T14:44:09.763Z,77.72
2023-05-16T14:49:19.149Z,78.34
2023-05-16T14:54:23.631Z,79.45
2023-05-16T14:59:28.495Z,79.55
2023-05-16T15:04:33.041Z,79.31
2023-05-16T15:09:37.054Z,79.66
2023-05-16T15:14:40.715Z,79.65
2023-05-16T15:19:44.456Z,80.32
2023-05-16T15:24:55.604Z,80.56
2023-05-16T15:30:02.787Z,80.32
2023-05-16T15:35:07.026Z,79.87
2023-05-16T15:40:11.526Z,80.33
2023-05-16T15:45:15.141Z,79.78
2023-05-16T15:50:18.875Z,78.43
2023-05-16T15:55:22.658Z,79.21
2023-05-16T16:00:26.803Z,80.10
2023-05-16T16:05:30.650Z,80.92
2023-05-16T16:10:35.058Z,81.08
2023-05-16T16:15:39.809Z,81.02
2023-05-16T16:20:43.598Z,81.51
2023-05-16T16:25:47.332Z,82.03
2023-05-16T16:30:51.323Z,82.49
2023-05-16T16:35:55.938Z,82.72
2023-05-16T16:40:59.690Z,82.63
2023-05-16T16:46:03.431Z,82.56
2023-05-16T16:51:07.567Z,82.17
2023-05-16T16:56:11.321Z,82.39
2023-05-16T17:01:15.172Z,82.73
2023-05-16T17:06:19.548Z,82.81
2023-05-16T17:11:23.948Z,83.18
2023-05-16T17:16:31.698Z,83.22
2023-05-16T17:21:37.577Z,84.40
2023-05-16T17:26:41.411Z,85.13
2023-05-16T17:31:51.286Z,85.15
2023-05-16T17:36:54.983Z,84.95
2023-05-16T17:42:00.091Z,84.86
2023-05-16T17:47:07.376Z,85.72
2023-05-16T17:52:11.337Z,86.01
2023-05-16T17:57:15.959Z,85.54
2023-05-16T18:02:20.321Z,86.51
2023-05-16T18:07:28.200Z,87.02
2023-05-16T18:12:32.066Z,87.50
2023-05-16T18:17:36.035Z,87.70
2023-05-16T18:22:40.015Z,87.96
2023-05-16T18:27:46.454Z,87.78
2023-05-16T18:32:51.699Z,88.25
2023-05-16T18:37:56.216Z,88.70
2023-05-16T18:43:00.815Z,89.18
2023-05-16T18:48:05.463Z,88.67
2023-05-16T18:53:10.478Z,88.95
2023-05-16T18:58:16.235Z,89.32
2023-05-16T19:03:21.109Z,89.02
2023-05-16T19:08:31.302Z,89.56
2023-05-16T19:13:42.377Z,89.57
2023-05-16T19:18:47.657Z,90.23
2023-05-16T19:23:52.578Z,90.10
2023-05-16T19:29:01.057Z,90.34
2023-05-16T19:34:06.883Z,90.48
2023-05-16T19:39:10.875Z,90.42
2023-05-16T19:44:14.930Z,90.60
2023-05-16T19:49:21.311Z,90.47
2023-05-16T19:54:25.468Z,90.65
2023-05-16T19:59:29.915Z,90.68
2023-05-16T20:04:33.781Z,90.74
2023-05-16T20:09:37.921Z,91.14
2023-05-16T20:14:42.485Z,91.07
2023-05-16T20:19:47.854Z,91.31
2023-05-16T20:24:52.121Z,90.47
2023-05-16T20:29:57.491Z,89.70
2023-05-16T20:35:04.770Z,89.45
2023-05-16T20:40:10.718Z,89.75
2023-05-16T20:45:15.940Z,90.00
2023-05-16T20:50:20.685Z,90.02
2023-05-16T20:55:26.363Z,90.29
2023-05-16T21:00:30.444Z,90.51
2023-05-16T21:05:38.208Z,90.47
2023-05-16T21:10:42.388Z,91.02
2023-05-16T21:15:47.711Z,91.34
2023-05-16T21:20:51.490Z,91.88
2023-05-16T21:25:55.769Z,91.67
2023-05-16T21:31:00.055Z,92.48
2023-05-16T21:36:04.324Z,92.68
2023-05-16T21:41:08.211Z,92.74
2023-05-16T21:46:12.221Z,92.73
2023-05-16T21:51:19.775Z,92.76
2023-05-16T21:56:32.437Z,92.84
2023-05-16T22:01:36.562Z,92.86
2023-05-16T22:06:40.562Z,92.77
2023-05-16T22:11:44.394Z,93.05
2023-05-16T22:16:48.072Z,93.11
2023-05-16T22:21:51.846Z,92.93
2023-05-16T22:26:55.912Z,93.09
2023-05-16T22:31:59.699Z,93.41
2023-05-16T22:37:04.514Z,93.40
2023-05-16T22:42:10.786Z,93.48
2023-05-16T22:47:15.838Z,93.49
2023-05-16T22:52:19.768Z,93.60
2023-05-16T22:57:24.644Z,93.60
2023-05-16T23:02:30.946Z,93.58
2023-05-16T23:07:34.989Z,93.52
2023-05-16T23:12:40.443Z,93.37
2023-05-16T23:17:44.908Z,93.51
2023-05-16T23:22:48.976Z,93.66
2023-05-16T23:27:54.011Z,93.75
2023-05-16T23:32:58.187Z,93.88
2023-05-16T23:38:03.640Z,94.02
2023-05-16T23:43:09.911Z,94.12
2023-05-16T23:48:13.910Z,94.16
2023-05-16T23:53:20.222Z,94.26
2023-05-16T23:58:24.118Z,94.32
